createdAt,value
2023-02-17T00:00:16.460Z,40.20
2023-02-17T00:03:04.392Z,36.00
2023-02-17T00:05:32.389Z,36.60
2023-02-17T00:08:00.400Z,32.50
2023-02-17T00:10:28.395Z,31.70
2023-02-17T00:12:56.377Z,41.40
2023-02-17T00:15:24.326Z,34.20
2023-02-17T00:17:55.233Z,34.20
2023-02-17T00:20:23.502Z,34.40
2023-02-17T00:22:51.703Z,34.60
2023-02-17T00:25:19.688Z,36.20
2023-02-17T00:27:49.181Z,37.30
2023-02-17T00:30:18.039Z,31.70
2023-02-17T00:32:46.145Z,34.60
2023-02-17T00:35:14.264Z,34.40
2023-02-17T00:37:45.660Z,24.90
2023-02-17T00:40:15.614Z,27.20
2023-02-17T00:42:43.538Z,32.90
2023-02-17T00:45:11.499Z,30.50
2023-02-17T00:47:39.566Z,27.10
2023-02-17T00:50:08.262Z,31.10
2023-02-17T00:52:36.394Z,32.60
2023-02-17T00:55:05.232Z,31.00
2023-02-17T00:57:33.301Z,28.00
2023-02-17T01:00:02.543Z,32.70
2023-02-17T01:02:30.586Z,30.60
2023-02-17T01:04:58.766Z,31.50
2023-02-17T01:07:26.773Z,30.80
2023-02-17T01:09:55.164Z,27.40
2023-02-17T01:12:23.155Z,28.70
2023-02-17T01:14:55.315Z,31.50
2023-02-17T01:17:24.798Z,31.40
2023-02-17T01:19:55.654Z,27.90
2023-02-17T01:22:24.132Z,27.90
2023-02-17T01:24:52.285Z,28.10
2023-02-17T01:27:20.597Z,28.70
2023-02-17T01:29:49.199Z,30.30
2023-02-17T01:32:17.324Z,28.30
2023-02-17T01:34:45.375Z,28.10
2023-02-17T01:37:15.320Z,28.90
2023-02-17T01:39:43.522Z,24.40
2023-02-17T01:42:17.586Z,26.10
2023-02-17T01:45:19.703Z,29.60
2023-02-17T01:47:59.417Z,30.50
2023-02-17T01:50:37.146Z,29.90
2023-02-17T01:53:09.232Z,28.70
2023-02-17T01:55:39.702Z,25.70
2023-02-17T01:58:10.794Z,26.10
2023-02-17T02:00:39.637Z,27.00
2023-02-17T02:03:11.278Z,25.90
2023-02-17T02:05:41.308Z,27.00
2023-02-17T02:08:11.253Z,26.60
2023-02-17T02:10:40.014Z,29.90
2023-02-17T02:13:08.987Z,27.40
2023-02-17T02:16:21.253Z,30.30
2023-02-17T02:19:09.766Z,30.20
2023-02-17T02:22:07.187Z,29.20
2023-02-17T02:25:17.029Z,28.70
2023-02-17T02:27:52.964Z,29.10
2023-02-17T02:30:45.206Z,27.80
2023-02-17T02:33:43.511Z,29.60
2023-02-17T02:36:30.095Z,25.50
2023-02-17T02:41:41.941Z,25.70
2023-02-17T02:44:15.723Z,25.70
2023-02-17T02:46:44.191Z,27.60
2023-02-17T02:49:12.690Z,28.70
2023-02-17T02:51:59.567Z,28.00
2023-02-17T02:54:42.211Z,27.60
2023-02-17T02:57:29.969Z,23.40
2023-02-17T03:00:15.662Z,22.40
2023-02-17T03:02:58.314Z,25.70
2023-02-17T03:05:42.054Z,28.50
2023-02-17T03:08:15.953Z,25.60
2023-02-17T03:10:50.180Z,24.40
2023-02-17T03:13:19.578Z,25.90
2023-02-17T03:15:48.288Z,27.10
2023-02-17T03:18:16.365Z,28.10
2023-02-17T03:20:56.341Z,29.00
2023-02-17T03:23:26.428Z,29.70
2023-02-17T03:25:54.577Z,29.40
2023-02-17T03:28:22.689Z,24.60
2023-02-17T03:30:50.947Z,28.90
2023-02-17T03:33:19.124Z,27.90
2023-02-17T03:35:47.238Z,27.70
2023-02-17T03:38:16.815Z,29.60
2023-02-17T03:40:45.019Z,26.90
2023-02-17T03:43:13.538Z,26.90
2023-02-17T03:45:41.667Z,25.30
2023-02-17T03:48:10.886Z,29.90
2023-02-17T03:50:38.875Z,29.20
2023-02-17T03:53:07.068Z,29.70
2023-02-17T03:55:35.408Z,29.80
2023-02-17T03:58:03.896Z,29.00
2023-02-17T04:00:31.913Z,27.50
2023-02-17T04:03:00.180Z,29.20
2023-02-17T04:05:28.312Z,28.60
2023-02-17T04:07:56.453Z,27.00
2023-02-17T04:10:24.492Z,28.20
2023-02-17T04:12:54.160Z,26.90
2023-02-17T04:15:22.256Z,29.40
2023-02-17T04:17:50.224Z,30.60
2023-02-17T04:20:18.322Z,31.10
2023-02-17T04:22:46.701Z,28.60
2023-02-17T04:25:14.700Z,29.80
2023-02-17T04:27:42.849Z,26.70
2023-02-17T04:30:13.892Z,27.70
2023-02-17T04:32:41.847Z,25.90
2023-02-17T04:35:09.904Z,27.30
2023-02-17T04:37:38.010Z,21.20
2023-02-17T04:40:10.501Z,24.20
2023-02-17T04:42:38.853Z,28.20
2023-02-17T04:45:07.848Z,27.40
2023-02-17T04:47:36.080Z,29.40
2023-02-17T04:50:06.150Z,22.70
2023-02-17T04:52:34.582Z,28.00
2023-02-17T04:55:02.927Z,27.90
2023-02-17T04:57:31.093Z,27.90
2023-02-17T04:59:59.329Z,29.30
2023-02-17T05:02:28.459Z,26.40
2023-02-17T05:04:56.506Z,28.20
2023-02-17T05:07:25.291Z,29.50
2023-02-17T05:09:54.290Z,26.80
2023-02-17T05:12:22.348Z,25.40
2023-02-17T05:14:50.644Z,24.20
2023-02-17T05:17:19.068Z,28.30
2023-02-17T05:19:47.632Z,29.50
2023-02-17T05:22:16.117Z,28.60
2023-02-17T05:24:44.143Z,27.70
2023-02-17T05:27:13.578Z,29.00
2023-02-17T05:29:41.986Z,27.70
2023-02-17T05:32:10.189Z,27.40
2023-02-17T05:34:39.094Z,27.00
2023-02-17T05:37:08.195Z,25.70
2023-02-17T05:39:36.632Z,25.60
2023-02-17T05:42:04.952Z,26.50
2023-02-17T05:44:33.361Z,26.70
2023-02-17T05:47:02.242Z,26.80
2023-02-17T05:49:30.539Z,26.60
2023-02-17T05:51:59.233Z,28.10
2023-02-17T05:54:29.013Z,28.40
2023-02-17T05:56:57.183Z,24.40
2023-02-17T05:59:27.055Z,27.60
2023-02-17T06:01:55.334Z,27.30
2023-02-17T06:04:24.488Z,20.70
2023-02-17T06:06:54.122Z,24.30
2023-02-17T06:09:22.170Z,24.90
2023-02-17T06:11:50.433Z,23.90
2023-02-17T06:14:19.689Z,24.70
2023-02-17T06:16:48.008Z,25.30
2023-02-17T06:19:18.330Z,29.20
2023-02-17T06:21:47.128Z,24.80
2023-02-17T06:24:15.537Z,26.50
2023-02-17T06:26:44.267Z,25.70
2023-02-17T06:29:12.335Z,25.10
2023-02-17T06:31:40.655Z,24.60
2023-02-17T06:34:10.761Z,26.90
2023-02-17T06:36:39.559Z,26.00
2023-02-17T06:39:09.778Z,27.20
2023-02-17T06:41:37.993Z,27.50
2023-02-17T06:44:07.920Z,27.60
2023-02-17T06:46:36.426Z,27.90
2023-02-17T06:49:04.866Z,28.90
2023-02-17T06:51:32.977Z,28.10
2023-02-17T06:54:01.061Z,26.80
2023-02-17T06:56:29.282Z,28.00
2023-02-17T06:58:57.649Z,25.70
2023-02-17T07:01:28.165Z,27.30
2023-02-17T07:03:58.720Z,26.90
2023-02-17T07:06:29.567Z,27.40
2023-02-17T07:08:57.797Z,26.70
2023-02-17T07:11:27.361Z,28.50
2023-02-17T07:13:56.618Z,26.80
2023-02-17T07:16:25.008Z,27.80
2023-02-17T07:18:53.345Z,28.40
2023-02-17T07:21:22.739Z,29.10
2023-02-17T07:23:53.530Z,28.20
2023-02-17T07:26:21.821Z,28.80
2023-02-17T07:28:49.908Z,29.60
2023-02-17T07:31:24.723Z,26.60
2023-02-17T07:33:53.178Z,24.20
2023-02-17T07:36:21.595Z,30.00
2023-02-17T07:38:50.445Z,26.40
2023-02-17T07:41:21.828Z,26.90
2023-02-17T07:43:54.841Z,24.40
2023-02-17T07:46:23.796Z,24.10
2023-02-17T07:48:52.359Z,29.40
2023-02-17T07:51:22.549Z,28.20
2023-02-17T07:53:52.418Z,28.10
2023-02-17T07:56:23.090Z,27.60
2023-02-17T07:58:53.712Z,26.80
2023-02-17T08:01:24.504Z,25.90
2023-02-17T08:03:54.158Z,27.50
2023-02-17T08:06:27.176Z,30.40
2023-02-17T08:09:15.492Z,29.30
2023-02-17T08:12:05.160Z,25.40
2023-02-17T08:14:33.683Z,29.40
2023-02-17T08:17:02.366Z,28.50
2023-02-17T08:19:46.709Z,28.20
2023-02-17T08:22:18.145Z,29.80
2023-02-17T08:24:50.911Z,29.10
2023-02-17T08:27:22.438Z,28.70
2023-02-17T08:29:50.942Z,27.40
2023-02-17T08:32:20.183Z,28.80
2023-02-17T08:34:48.876Z,30.30
2023-02-17T08:37:19.658Z,28.70
2023-02-17T08:39:48.120Z,27.70
2023-02-17T08:42:18.048Z,29.10
2023-02-17T08:44:46.324Z,26.90
2023-02-17T08:47:15.300Z,26.10
2023-02-17T08:49:52.198Z,27.40
2023-02-17T08:52:21.115Z,27.30
2023-02-17T08:54:51.729Z,27.10
2023-02-17T08:57:23.725Z,25.90
2023-02-17T08:59:55.062Z,24.80
2023-02-17T09:02:23.220Z,25.90
2023-02-17T09:04:51.941Z,26.00
2023-02-17T09:07:20.050Z,26.60
2023-02-17T09:09:48.139Z,25.30
2023-02-17T09:12:17.041Z,26.90
2023-02-17T09:14:45.914Z,31.00
2023-02-17T09:17:14.364Z,30.10
2023-02-17T09:19:42.416Z,34.00
2023-02-17T09:22:31.655Z,43.60
2023-02-17T09:25:00.700Z,44.30
2023-02-17T09:27:30.969Z,46.90
2023-02-17T09:30:01.748Z,39.20
2023-02-17T09:32:30.242Z,39.70
2023-02-17T09:34:58.805Z,33.70
2023-02-17T09:37:27.185Z,35.30
2023-02-17T09:39:55.932Z,31.90
2023-02-17T09:42:28.417Z,39.30
2023-02-17T09:45:08.561Z,32.20
2023-02-17T09:47:51.864Z,35.60
2023-02-17T09:50:26.160Z,37.10
2023-02-17T09:53:11.344Z,31.50
2023-02-17T09:55:45.308Z,34.70
2023-02-17T09:58:31.125Z,31.10
2023-02-17T10:03:56.089Z,30.10
2023-02-17T10:06:46.897Z,30.60
2023-02-17T10:09:36.189Z,32.10
2023-02-17T10:12:13.976Z,30.70
2023-02-17T10:14:51.373Z,29.00
2023-02-17T10:17:28.777Z,29.80
2023-02-17T10:20:11.604Z,30.10
2023-02-17T10:22:46.093Z,31.60
2023-02-17T10:25:17.857Z,32.70
2023-02-17T10:28:11.081Z,31.50
2023-02-17T10:30:56.229Z,31.60
2023-02-17T10:33:56.647Z,34.70
2023-02-17T10:39:14.115Z,34.50
2023-02-17T10:41:55.121Z,36.90
2023-02-17T10:44:25.132Z,38.60
2023-02-17T10:46:55.246Z,41.20
2023-02-17T10:49:37.740Z,38.10
2023-02-17T10:52:15.959Z,39.70
2023-02-17T10:55:01.931Z,39.50
2023-02-17T10:57:38.462Z,38.40
2023-02-17T11:00:15.470Z,38.70
2023-02-17T11:02:46.359Z,37.50
2023-02-17T11:05:34.108Z,38.30
2023-02-17T11:08:24.018Z,36.70
2023-02-17T11:11:26.632Z,36.60
2023-02-17T11:14:07.762Z,36.60
2023-02-17T11:16:45.915Z,35.70
2023-02-17T11:19:27.579Z,34.60
2023-02-17T11:22:01.366Z,35.70
2023-02-17T11:24:32.013Z,34.70
2023-02-17T11:27:02.168Z,33.10
2023-02-17T11:29:30.867Z,34.10
2023-02-17T11:32:08.563Z,37.60
2023-02-17T11:34:39.612Z,35.20
2023-02-17T11:37:13.968Z,36.20
2023-02-17T11:39:46.485Z,35.60
2023-02-17T11:42:22.254Z,33.60
2023-02-17T11:44:53.093Z,40.50
2023-02-17T11:47:30.482Z,33.50
2023-02-17T11:50:45.930Z,30.60
2023-02-17T11:53:32.656Z,30.80
2023-02-17T11:56:08.894Z,29.90
2023-02-17T11:58:46.368Z,30.60
2023-02-17T12:01:37.143Z,27.90
2023-02-17T12:04:05.160Z,26.70
2023-02-17T12:06:36.124Z,24.80
2023-02-17T12:09:25.468Z,25.90
2023-02-17T12:12:16.774Z,24.30
2023-02-17T12:14:54.507Z,23.00
2023-02-17T12:17:56.654Z,20.80
2023-02-17T12:20:50.555Z,21.30
2023-02-17T12:23:50.998Z,22.10
2023-02-17T12:26:40.075Z,22.10
2023-02-17T12:29:20.117Z,23.60
2023-02-17T12:32:14.893Z,28.30
2023-02-17T12:34:49.939Z,21.70
2023-02-17T12:39:57.386Z,21.30
2023-02-17T12:42:51.564Z,20.40
2023-02-17T12:45:24.098Z,21.30
2023-02-17T12:48:02.222Z,22.00
2023-02-17T12:50:36.995Z,20.20
2023-02-17T12:53:16.824Z,21.40
2023-02-17T12:56:01.176Z,21.70
2023-02-17T12:58:32.193Z,20.90
2023-02-17T13:01:10.916Z,21.30
2023-02-17T13:03:40.441Z,21.60
2023-02-17T13:06:22.058Z,21.70
2023-02-17T13:09:03.181Z,22.00
2023-02-17T13:11:39.770Z,21.20
2023-02-17T13:14:28.045Z,22.00
2023-02-17T13:16:56.381Z,20.30
2023-02-17T13:19:32.936Z,22.00
2023-02-17T13:24:39.177Z,22.60
2023-02-17T13:27:22.391Z,20.70
2023-02-17T13:30:26.143Z,21.30
2023-02-17T13:33:07.490Z,19.20
2023-02-17T13:35:37.627Z,18.70
2023-02-17T13:38:05.769Z,24.40
2023-02-17T13:40:37.073Z,17.80
2023-02-17T13:43:24.686Z,17.50
2023-02-17T13:46:04.812Z,19.30
2023-02-17T13:48:36.752Z,24.10
2023-02-17T13:51:07.135Z,25.70
2023-02-17T13:53:38.303Z,26.80
2023-02-17T13:56:35.856Z,25.60
2023-02-17T13:59:18.941Z,24.00
2023-02-17T14:04:28.614Z,26.10
2023-02-17T14:07:04.206Z,25.10
2023-02-17T14:09:34.404Z,28.20
2023-02-17T14:12:06.797Z,27.60
2023-02-17T14:14:38.152Z,28.90
2023-02-17T14:17:13.847Z,28.20
2023-02-17T14:19:47.626Z,29.80
2023-02-17T14:22:41.912Z,28.30
2023-02-17T14:25:26.772Z,27.20
2023-02-17T14:27:57.119Z,28.20
2023-02-17T14:30:39.313Z,26.20
2023-02-17T14:33:22.050Z,28.10
2023-02-17T14:36:00.701Z,26.90
2023-02-17T14:38:32.371Z,25.60
2023-02-17T14:41:01.330Z,25.50
2023-02-17T14:43:30.701Z,25.80
2023-02-17T14:45:58.926Z,26.10
2023-02-17T14:48:28.018Z,24.90
2023-02-17T14:50:57.800Z,26.50
2023-02-17T14:53:31.872Z,25.90
2023-02-17T14:56:04.979Z,26.30
2023-02-17T14:58:33.517Z,28.10
2023-02-17T15:01:02.902Z,26.30
2023-02-17T15:03:32.641Z,28.50
2023-02-17T15:06:01.340Z,42.20
2023-02-17T15:08:36.093Z,26.80
2023-02-17T15:11:04.425Z,27.30
2023-02-17T15:13:33.607Z,27.10
2023-02-17T15:16:02.007Z,29.90
2023-02-17T15:18:30.336Z,28.10
2023-02-17T15:20:58.672Z,31.00
2023-02-17T15:23:34.413Z,30.30
2023-02-17T15:26:04.004Z,31.30
2023-02-17T15:28:32.259Z,29.10
2023-02-17T15:31:01.623Z,30.40
2023-02-17T15:33:29.860Z,30.70
2023-02-17T15:35:58.274Z,31.10
2023-02-17T15:38:27.292Z,32.40
2023-02-17T15:40:58.518Z,32.20
2023-02-17T15:46:20.017Z,33.00
2023-02-17T15:48:50.135Z,32.10
2023-02-17T15:51:21.199Z,33.30
2023-02-17T15:53:57.656Z,34.20
2023-02-17T15:56:31.923Z,33.40
2023-02-17T15:59:08.444Z,32.70
2023-02-17T16:01:38.091Z,36.20
2023-02-17T16:04:06.963Z,35.90
2023-02-17T16:06:37.262Z,48.30
2023-02-17T16:09:07.355Z,36.60
2023-02-17T16:11:49.339Z,36.70
2023-02-17T16:14:25.170Z,37.00
2023-02-17T16:16:53.715Z,37.90
2023-02-17T16:19:22.659Z,38.30
2023-02-17T16:21:51.008Z,35.80
2023-02-17T16:24:19.265Z,35.60
2023-02-17T16:26:52.002Z,36.10
2023-02-17T16:29:22.981Z,34.20
2023-02-17T16:31:55.258Z,32.70
2023-02-17T16:34:24.176Z,33.10
2023-02-17T16:36:57.783Z,34.70
2023-02-17T16:41:59.595Z,30.30
2023-02-17T16:44:29.169Z,31.70
2023-02-17T16:47:02.213Z,33.10
2023-02-17T16:52:07.404Z,32.80
2023-02-17T16:54:38.234Z,32.80
2023-02-17T16:57:07.056Z,35.50
2023-02-17T16:59:37.342Z,33.70
2023-02-17T17:02:13.024Z,32.90
2023-02-17T17:04:41.764Z,31.50
2023-02-17T17:07:19.495Z,34.50
2023-02-17T17:10:14.352Z,33.70
2023-02-17T17:12:40.041Z,33.30
2023-02-17T17:15:09.158Z,36.30
2023-02-17T17:19:00.441Z,38.60
2023-02-17T17:21:42.956Z,35.20
2023-02-17T17:24:16.454Z,37.10
2023-02-17T17:26:53.406Z,37.00
2023-02-17T17:29:23.995Z,37.60
2023-02-17T17:31:52.196Z,37.40
2023-02-17T17:34:21.961Z,36.80
2023-02-17T17:36:53.270Z,37.20
2023-02-17T17:39:29.636Z,40.80
2023-02-17T17:47:01.648Z,38.30
2023-02-17T17:50:02.450Z,37.50
2023-02-17T17:52:32.816Z,39.20
2023-02-17T17:55:02.659Z,41.00
2023-02-17T17:57:53.960Z,42.10
2023-02-17T18:00:24.682Z,42.60
2023-02-17T18:09:30.255Z,52.90
2023-02-17T18:12:27.783Z,47.90
2023-02-17T18:14:56.257Z,51.30
2023-02-17T18:19:04.749Z,50.20
2023-02-17T18:21:41.343Z,52.10
2023-02-17T18:24:12.122Z,48.10
2023-02-17T18:26:41.047Z,44.70
2023-02-17T18:29:10.918Z,42.70
2023-02-17T18:31:39.560Z,43.50
2023-02-17T18:34:08.125Z,43.20
2023-02-17T18:36:42.936Z,44.80
2023-02-17T18:49:08.709Z,46.20
2023-02-17T18:51:37.459Z,47.00
2023-02-17T18:54:09.668Z,46.80
2023-02-17T18:56:38.169Z,44.90
2023-02-17T19:00:13.325Z,45.00
2023-02-17T19:07:07.244Z,42.70
2023-02-17T19:09:42.356Z,43.90
2023-02-17T19:12:14.984Z,44.50
2023-02-17T19:14:43.855Z,42.10
2023-02-17T19:17:13.707Z,43.80
2023-02-17T19:19:43.257Z,43.80
2023-02-17T19:22:12.687Z,43.40
2023-02-17T19:24:42.315Z,43.50
2023-02-17T19:27:50.657Z,43.60
2023-02-17T19:30:27.916Z,44.00
2023-02-17T19:32:57.040Z,47.00
2023-02-17T19:35:29.172Z,47.40
2023-02-17T19:43:59.759Z,45.70
2023-02-17T20:18:05.987Z,53.30
2023-02-17T20:48:34.973Z,51.10
2023-02-17T20:52:09.318Z,48.20
2023-02-17T20:54:39.364Z,44.50
2023-02-17T20:57:14.370Z,43.60
2023-02-17T21:00:30.788Z,42.80
2023-02-17T21:03:02.420Z,43.30
2023-02-17T21:05:35.490Z,43.10
2023-02-17T21:08:06.036Z,44.60
2023-02-17T21:10:41.672Z,43.50
2023-02-17T21:13:10.104Z,43.50
2023-02-17T21:15:39.584Z,44.60
2023-02-17T21:18:09.062Z,42.70
2023-02-17T23:20:48.398Z,43.40
2023-02-17T23:23:20.222Z,48.20
2023-02-17T23:25:56.015Z,48.80
